createdAt,value
2023-01-11T00:04:14.008Z,94.19
2023-01-11T00:09:05.772Z,93.80
2023-01-11T00:13:57.463Z,92.81
2023-01-11T00:18:49.169Z,91.81
2023-01-11T00:23:40.911Z,90.35
2023-01-11T00:28:32.896Z,89.81
2023-01-11T00:33:24.573Z,88.06
2023-01-11T00:38:36.216Z,87.49
2023-01-11T00:43:46.713Z,86.75
2023-01-11T00:48:38.334Z,86.72
2023-01-11T00:53:29.990Z,85.41
2023-01-11T00:58:21.622Z,87.06
2023-01-11T01:03:13.250Z,87.87
2023-01-11T01:08:05.017Z,88.23
2023-01-11T01:13:15.458Z,88.52
2023-01-11T01:18:07.066Z,88.91
2023-01-11T01:22:58.781Z,90.30
2023-01-11T01:27:50.462Z,90.48
2023-01-11T01:32:42.235Z,90.39
2023-01-11T01:37:34.020Z,90.39
2023-01-11T01:42:25.633Z,91.15
2023-01-11T01:47:18.225Z,91.51
2023-01-11T01:52:11.477Z,91.45
2023-01-11T01:57:09.252Z,91.34
2023-01-11T02:02:01.746Z,91.62
2023-01-11T02:06:58.685Z,91.68
2023-01-11T02:11:51.498Z,92.40
2023-01-11T02:16:43.191Z,92.26
2023-01-11T02:22:04.599Z,92.76
2023-01-11T02:27:21.289Z,93.84
2023-01-11T02:32:19.121Z,94.31
2023-01-11T02:37:21.147Z,94.21
2023-01-11T02:42:40.278Z,95.42
2023-01-11T02:47:51.363Z,95.25
2023-01-11T02:53:19.519Z,95.64
2023-01-11T02:58:12.786Z,95.53
2023-01-11T03:03:07.635Z,96.14
2023-01-11T03:08:27.862Z,95.92
2023-01-11T03:13:37.038Z,96.15
2023-01-11T03:18:50.709Z,95.66
2023-01-11T03:23:49.618Z,95.93
2023-01-11T03:29:03.060Z,95.81
2023-01-11T03:34:08.968Z,95.71
2023-01-11T03:39:17.128Z,95.68
2023-01-11T03:44:12.795Z,95.16
2023-01-11T03:49:10.618Z,94.70
2023-01-11T03:54:06.718Z,94.84
2023-01-11T03:58:58.528Z,95.17
2023-01-11T04:03:50.198Z,95.31
2023-01-11T04:08:41.886Z,95.38
2023-01-11T04:13:34.181Z,94.77
2023-01-11T04:18:25.823Z,94.37
2023-01-11T04:23:17.349Z,94.48
2023-01-11T04:28:09.047Z,94.97
2023-01-11T04:33:00.691Z,94.54
2023-01-11T04:37:58.783Z,94.30
2023-01-11T04:42:50.454Z,95.40
2023-01-11T04:47:42.221Z,95.40
2023-01-11T04:52:34.131Z,96.07
2023-01-11T04:57:25.923Z,95.81
2023-01-11T05:02:18.096Z,96.60
2023-01-11T05:07:11.137Z,96.88
2023-01-11T05:12:03.398Z,96.92
2023-01-11T05:16:55.007Z,95.81
2023-01-11T05:21:46.692Z,94.60
2023-01-11T05:26:40.427Z,94.07
2023-01-11T05:31:33.383Z,93.90
2023-01-11T05:36:26.023Z,92.85
2023-01-11T05:41:19.555Z,93.32
2023-01-11T05:46:11.223Z,92.94
2023-01-11T05:51:02.813Z,92.49
2023-01-11T05:55:58.970Z,92.60
2023-01-11T06:00:52.333Z,91.54
2023-01-11T06:05:46.016Z,91.19
2023-01-11T06:10:38.018Z,90.35
2023-01-11T06:15:29.617Z,90.52
2023-01-11T06:20:21.305Z,90.32
2023-01-11T06:25:13.063Z,89.64
2023-01-11T06:30:05.336Z,90.68
2023-01-11T06:34:57.006Z,90.92
2023-01-11T06:39:48.675Z,91.07
2023-01-11T06:44:40.380Z,91.25
2023-01-11T06:49:32.049Z,91.26
2023-01-11T06:54:25.675Z,91.67
2023-01-11T06:59:17.324Z,91.22
2023-01-11T07:04:09.288Z,91.28
2023-01-11T07:09:00.956Z,90.80
2023-01-11T07:13:52.719Z,91.45
2023-01-11T07:18:46.572Z,91.02
2023-01-11T07:23:38.392Z,91.33
2023-01-11T07:28:30.765Z,91.10
2023-01-11T07:33:22.621Z,91.78
2023-01-11T07:38:14.252Z,91.97
2023-01-11T07:43:14.750Z,92.72
2023-01-11T07:48:10.175Z,93.21
2023-01-11T07:53:01.832Z,92.54
2023-01-11T07:57:57.406Z,92.70
2023-01-11T08:02:53.256Z,93.18
2023-01-11T08:07:45.176Z,94.09
2023-01-11T08:13:01.449Z,93.79
2023-01-11T08:17:53.148Z,94.28
2023-01-11T08:22:44.851Z,94.21
2023-01-11T08:27:36.807Z,94.43
2023-01-11T08:32:29.261Z,94.45
2023-01-11T08:37:21.023Z,94.36
2023-01-11T08:42:12.665Z,94.30
2023-01-11T08:47:04.379Z,94.48
2023-01-11T08:51:56.581Z,93.74
2023-01-11T08:56:48.320Z,93.96
2023-01-11T09:01:40.116Z,93.85
2023-01-11T09:06:31.856Z,92.87
2023-01-11T09:11:42.114Z,92.96
2023-01-11T09:16:34.148Z,92.74
2023-01-11T09:21:25.867Z,92.53
2023-01-11T09:26:17.810Z,92.34
2023-01-11T09:31:09.488Z,90.82
2023-01-11T09:36:03.051Z,89.75
2023-01-11T09:40:59.213Z,89.22
2023-01-11T09:45:53.084Z,89.27
2023-01-11T09:50:48.436Z,89.37
2023-01-11T09:55:46.587Z,89.45
2023-01-11T10:00:44.109Z,90.36
2023-01-11T10:05:55.976Z,90.70
2023-01-11T10:18:30.187Z,92.77
2023-01-11T10:22:01.792Z,93.16
2023-01-11T10:27:02.151Z,93.50
2023-01-11T10:32:22.246Z,93.30
2023-01-11T10:37:46.815Z,93.73
2023-01-11T10:42:47.435Z,93.62
2023-01-11T10:47:51.322Z,93.80
2023-01-11T10:53:00.165Z,92.80
2023-01-11T10:57:59.288Z,92.32
2023-01-11T11:03:06.549Z,91.10
2023-01-11T11:08:05.941Z,90.13
2023-01-11T11:13:21.542Z,88.41
2023-01-11T11:18:13.552Z,86.76
2023-01-11T11:23:05.507Z,86.39
2023-01-11T11:28:05.953Z,85.78
2023-01-11T11:33:04.199Z,86.07
2023-01-11T11:37:56.078Z,86.95
2023-01-11T11:42:47.737Z,86.48
2023-01-11T11:47:39.429Z,86.71
2023-01-11T11:52:31.103Z,87.14
2023-01-11T11:57:28.560Z,86.99
2023-01-11T12:02:26.647Z,88.86
2023-01-11T12:07:22.552Z,89.04
2023-01-11T12:12:20.176Z,90.00
2023-01-11T12:17:24.661Z,90.11
2023-01-11T12:22:16.290Z,90.45
2023-01-11T12:27:16.841Z,89.60
2023-01-11T12:32:30.589Z,90.08
2023-01-11T12:37:25.416Z,88.89
2023-01-11T12:42:41.192Z,88.48
2023-01-11T12:47:52.809Z,88.63
2023-01-11T12:52:59.464Z,91.21
2023-01-11T12:58:21.959Z,93.29
2023-01-11T13:03:41.446Z,95.24
2023-01-11T13:08:36.016Z,96.61
2023-01-11T13:13:57.334Z,96.95
2023-01-11T13:19:00.810Z,98.90
2023-01-11T13:24:02.417Z,98.90
2023-01-11T13:29:04.731Z,97.81
2023-01-11T13:34:25.327Z,97.01
2023-01-11T13:39:29.890Z,97.29
2023-01-11T13:44:37.004Z,98.18
2023-01-11T13:49:51.683Z,97.96
2023-01-11T13:54:58.955Z,97.42
2023-01-11T13:59:57.732Z,96.77
2023-01-11T14:04:59.207Z,97.72
2023-01-11T14:10:07.088Z,97.00
2023-01-11T14:15:28.852Z,97.35
2023-01-11T14:20:38.048Z,97.29
2023-01-11T14:25:46.303Z,97.90
2023-01-11T14:30:57.474Z,98.05
2023-01-11T14:35:56.198Z,98.65
2023-01-11T14:40:56.930Z,97.35
2023-01-11T14:46:20.705Z,98.41
2023-01-11T14:51:51.346Z,99.21
2023-01-11T14:56:42.896Z,99.55
2023-01-11T15:02:03.623Z,100.00
2023-01-11T15:06:56.639Z,100.00
2023-01-11T15:11:48.356Z,100.00
2023-01-11T15:16:58.724Z,100.00
2023-01-11T15:21:55.583Z,100.00
2023-01-11T15:26:49.324Z,100.00
2023-01-11T15:32:02.241Z,100.00
2023-01-11T15:37:03.607Z,98.30
2023-01-11T15:42:17.589Z,96.27
2023-01-11T15:47:31.551Z,93.38
2023-01-11T15:52:54.067Z,90.12
2023-01-11T15:58:15.020Z,86.79
2023-01-11T16:03:44.979Z,85.34
2023-01-11T16:08:43.142Z,85.85
2023-01-11T16:14:23.050Z,86.64
2023-01-11T16:19:20.033Z,86.73
2023-01-11T16:24:19.809Z,87.52
2023-01-11T16:29:18.799Z,87.21
2023-01-11T16:34:17.964Z,87.41
2023-01-11T16:39:13.897Z,86.79
2023-01-11T16:44:09.119Z,87.71
2023-01-11T16:49:11.028Z,87.20
2023-01-11T16:54:05.051Z,88.28
2023-01-11T16:59:30.553Z,89.23
2023-01-11T17:04:35.734Z,89.94
2023-01-11T17:09:29.592Z,90.57
2023-01-11T17:14:36.560Z,90.92
2023-01-11T17:19:31.512Z,90.87
2023-01-11T17:24:24.979Z,89.94
2023-01-11T17:29:22.994Z,89.59
2023-01-11T17:34:24.035Z,90.25
2023-01-11T17:39:32.063Z,89.79
2023-01-11T17:44:43.679Z,89.11
2023-01-11T17:49:38.047Z,88.81
2023-01-11T17:54:30.007Z,88.89
2023-01-11T17:59:29.946Z,89.39
2023-01-11T18:04:23.284Z,89.11
2023-01-11T18:09:40.283Z,89.36
2023-01-11T18:14:39.439Z,90.23
2023-01-11T18:19:42.569Z,89.84
2023-01-11T18:24:35.192Z,89.57
2023-01-11T18:29:35.889Z,89.26
2023-01-11T18:34:27.577Z,88.04
2023-01-11T18:39:19.157Z,87.60
2023-01-11T18:44:12.149Z,87.93
2023-01-11T18:49:03.878Z,88.40
2023-01-11T18:53:55.574Z,89.77
2023-01-11T18:58:47.369Z,90.06
2023-01-11T19:03:39.206Z,89.38
2023-01-11T19:08:31.732Z,90.19
2023-01-11T19:13:23.614Z,90.56
2023-01-11T19:18:16.374Z,90.85
2023-01-11T19:23:08.556Z,91.78
2023-01-11T19:28:02.594Z,92.85
2023-01-11T19:32:54.962Z,94.27
2023-01-11T19:37:46.765Z,95.02
2023-01-11T19:42:39.849Z,96.56
2023-01-11T19:47:31.570Z,97.93
2023-01-11T19:52:23.279Z,98.31
2023-01-11T19:57:19.000Z,98.94
2023-01-11T20:02:15.333Z,100.00
2023-01-11T20:07:11.037Z,100.00
2023-01-11T20:12:02.718Z,100.00
2023-01-11T20:16:54.634Z,100.00
2023-01-11T20:21:46.374Z,100.00
2023-01-11T20:26:38.165Z,100.00
2023-01-11T20:31:32.406Z,100.00
2023-01-11T20:36:25.237Z,100.00
2023-01-11T20:41:38.065Z,100.00
2023-01-11T20:46:29.763Z,100.00
2023-01-11T20:51:21.390Z,100.00
2023-01-11T20:56:13.997Z,100.00
2023-01-11T21:01:10.902Z,100.00
2023-01-11T21:06:07.257Z,100.00
2023-01-11T21:11:07.221Z,100.00
2023-01-11T21:15:58.998Z,100.00
2023-01-11T21:20:50.872Z,100.00
2023-01-11T21:25:43.007Z,100.00
2023-01-11T21:30:34.738Z,100.00
2023-01-11T21:35:27.193Z,100.00
2023-01-11T21:40:19.111Z,100.00
2023-01-11T21:45:11.569Z,100.00
2023-01-11T21:50:03.412Z,100.00
2023-01-11T21:54:55.138Z,100.00
2023-01-11T21:59:46.813Z,100.00
2023-01-11T22:04:39.043Z,100.00
2023-01-11T22:09:32.313Z,100.00
2023-01-11T22:14:23.944Z,100.00
2023-01-11T22:19:16.044Z,100.00
2023-01-11T22:24:11.877Z,100.00
2023-01-11T22:29:14.823Z,100.00
2023-01-11T22:34:06.964Z,100.00
2023-01-11T22:38:58.681Z,100.00
2023-01-11T22:43:50.616Z,100.00
2023-01-11T22:48:42.599Z,100.00
2023-01-11T22:53:42.048Z,100.00
2023-01-11T22:58:35.943Z,100.00
2023-01-11T23:03:27.624Z,100.00
2023-01-11T23:08:19.279Z,100.00
2023-01-11T23:13:29.292Z,100.00
2023-01-11T23:18:21.525Z,100.00
2023-01-11T23:23:13.550Z,100.00
2023-01-11T23:28:05.205Z,100.00
2023-01-11T23:32:56.833Z,100.00
2023-01-11T23:37:50.402Z,100.00
2023-01-11T23:42:42.080Z,100.00
2023-01-11T23:47:33.726Z,100.00
2023-01-11T23:52:28.660Z,100.00
2023-01-11T23:57:21.551Z,100.00
